No.3toumei Maru — JD2403 — position and weather

sailwx.info

Track history (hours):
 
Tides and Currents Weather Stations Pressure Air Temp Water Temp Dewpoint Dewpoint Depression Visibility Wind Speed Wind Dir Waves Ship Positions

No.3toumei Maru

Last reported at 2018-Jun-22 05:16 UTC. Time now 2018-Jun-22 05:39 UTC.
Position N 35°21' E 139°43'.

Length 60 m.

Type: Tanker. MMSI: 431000178.

Date/timePositionNaut miles runAvg speedWind from/ knotsBaromVisibWave heightAir tempDewpointWater temp
2018-Jun-22 05:16N 35°21' E 139°43'311.0
2018-Jun-22 04:57N 35°24' E 139°43'  
2018-Jun-19 16:49N 35°25' E 139°47'411.3
2018-Jun-19 16:30N 35°21' E 139°45'247 9.3
2018-Jun-18 13:54N 34°03' E 135°00'710.7
2018-Jun-18 13:17N 34°10' E 134°59'411.6
2018-Jun-18 12:55N 34°14' E 134°59'410.0
2018-Jun-18 12:30N 34°18' E 134°59'510.4
2018-Jun-18 12:00N 34°24' E 135°00'510.6
2018-Jun-18 11:30N 34°29' E 135°02'510.6
2018-Jun-18 10:59N 34°34' E 135°03'  
2018-Jun-15 07:42N 34°28' E 134°30'211.6
2018-Jun-15 07:29N 34°29' E 134°33'611.8
2018-Jun-15 06:59N 34°31' E 134°39'811.4
2018-Jun-15 06:19N 34°34' E 134°48'13 8.1
2018-Jun-15 04:46N 34°36' E 135°03'3 9.1
2018-Jun-15 04:27N 34°36' E 135°06'511.5
2018-Jun-15 04:00N 34°37' E 135°13'612.5
2018-Jun-15 03:29N 34°39' E 135°20'2 3.5
2018-Jun-15 02:58N 34°40' E 135°22'0 0.0
2018-Jun-15 02:28N 34°40' E 135°22'0 0.0
2018-Jun-15 01:58N 34°40' E 135°22'2 0.9
2018-Jun-14 23:28N 34°40' E 135°25'2 4.8
2018-Jun-14 23:00N 34°40' E 135°22'2 2.5
2018-Jun-14 22:24N 34°39' E 135°21'0 0.0
2018-Jun-14 22:00N 34°39' E 135°21'0 0.0
2018-Jun-14 21:30N 34°39' E 135°21'0 0.0
2018-Jun-14 20:48N 34°39' E 135°21'0 0.0
2018-Jun-14 20:30N 34°39' E 135°21'3 6.2
2018-Jun-14 20:00N 34°38' E 135°17'611.7
2018-Jun-14 19:29N 34°36' E 135°10'612.4
2018-Jun-14 18:58N 34°36' E 135°03'  
2018-Jun-12 05:18N 34°28' E 134°30'  
Track history (hours):
 
Tides and Currents Weather Stations Pressure Air Temp Water Temp Dewpoint Dewpoint Depression Visibility Wind Speed Wind Dir Waves Ship Positions

No.3toumei Maru

Last reported at 2018-Jun-22 05:16 UTC. Time now 2018-Jun-22 05:39 UTC.
Position N 35°21' E 139°43'.

Length 60 m.

Type: Tanker. MMSI: 431000178.

Date/timePositionNaut miles runAvg speedWind from/ knotsBaromVisibWave heightAir tempDewpointWater temp
2018-Jun-22 05:16N 35°21' E 139°43'311.0
2018-Jun-22 04:57N 35°24' E 139°43'  
2018-Jun-19 16:49N 35°25' E 139°47'411.3
2018-Jun-19 16:30N 35°21' E 139°45'247 9.3
2018-Jun-18 13:54N 34°03' E 135°00'710.7
2018-Jun-18 13:17N 34°10' E 134°59'411.6
2018-Jun-18 12:55N 34°14' E 134°59'410.0
2018-Jun-18 12:30N 34°18' E 134°59'510.4
2018-Jun-18 12:00N 34°24' E 135°00'510.6
2018-Jun-18 11:30N 34°29' E 135°02'510.6
2018-Jun-18 10:59N 34°34' E 135°03'  
2018-Jun-15 07:42N 34°28' E 134°30'211.6
2018-Jun-15 07:29N 34°29' E 134°33'611.8
2018-Jun-15 06:59N 34°31' E 134°39'811.4
2018-Jun-15 06:19N 34°34' E 134°48'13 8.1
2018-Jun-15 04:46N 34°36' E 135°03'3 9.1
2018-Jun-15 04:27N 34°36' E 135°06'511.5
2018-Jun-15 04:00N 34°37' E 135°13'612.5
2018-Jun-15 03:29N 34°39' E 135°20'2 3.5
2018-Jun-15 02:58N 34°40' E 135°22'0 0.0
2018-Jun-15 02:28N 34°40' E 135°22'0 0.0
2018-Jun-15 01:58N 34°40' E 135°22'2 0.9
2018-Jun-14 23:28N 34°40' E 135°25'2 4.8
2018-Jun-14 23:00N 34°40' E 135°22'2 2.5
2018-Jun-14 22:24N 34°39' E 135°21'0 0.0
2018-Jun-14 22:00N 34°39' E 135°21'0 0.0
2018-Jun-14 21:30N 34°39' E 135°21'0 0.0
2018-Jun-14 20:48N 34°39' E 135°21'0 0.0
2018-Jun-14 20:30N 34°39' E 135°21'3 6.2
2018-Jun-14 20:00N 34°38' E 135°17'611.7
2018-Jun-14 19:29N 34°36' E 135°10'612.4
2018-Jun-14 18:58N 34°36' E 135°03'  
2018-Jun-12 05:18N 34°28' E 134°30'  

Dump ship's entire track history